Fairfield, TX

6:23 PM CST on November 26, 2014 (GMT -0600)
Palestine Municipal | Change Station
CLOSE
Current Station
Airport
Location: Palestine,
Elevation: 423 ft
Nearby Weather Stations

Elev 423 ft 31.78 °N, 95.70 °W | Updated 8 minutes ago

Clear
Clear
52 °F
Feels Like 52 °F
N
0
Wind Variable Wind from North

Today
High -- | Low -- °F
--% Chance of Precip.
Yesterday
High -- | Low -- °F
Precip. -- in
7:02 AM 5:21 PM
Waxing Crescent, 24% visible
Pressure 30.25 in
Visibility 10.0 miles
Clouds Clear
Dew Point 40 °F
Humidity 63%
Rainfall 0.00 in
Snow Depth Not available.
UV 0 out of 12
Pollen 5.40 out of 12
Air Quality Not available.
Flu Activity Not available.
METAR KPSN 270015Z AUTO 00000KT 10SM CLR 11/04 A3025 RMK AO2 T01100043

More Conditions Fewer Conditions

Pressure 30.25 in
Visibility 10.0 miles
Clouds Clear
Dew Point 40 °F
Humidity 63%
Rainfall 0.00 in
Snow Depth Not available.
UV 0 out of 12
Pollen 5.40 out of 12
Air Quality Not available.
Flu Activity Not available.
METAR KPSN 270015Z AUTO 00000KT 10SM CLR 11/04 A3025 RMK AO2 T01100043

More Conditions Fewer Conditions

10-Day Weather Forecast

Almanac

Astronomy

Nov. 26, 2014 Rise Set
Actual Time
Civil Twilight
Nautical Twilight
Astronomical Twilight
Moon
Length of Visible Light
Length of Day
Tomorrow will be .
, % of the Moon is Illuminated

Today's Extremes

State Highs State Lows

Community

WunderPhotos

Upload Photos

1,773,930 photos uploaded!

WunderBlogs® & News

Nearby

Air Quality

  Air Quality AQ Index Pollutant
Not available.

Snow Depth

Station Depth Elevation

Earthquake Activity

City Distance Mag. Time & Date
Minimum magnitude displayed is 2.5.

Coastal Water Temperatures

Place Temperature

Nearby Weather Stations